createdAt,value
2017-07-23T00:00:48.935Z,0
2017-07-23T00:01:48.301Z,0
2017-07-23T00:02:48.305Z,0
2017-07-23T00:03:48.910Z,0
2017-07-23T00:04:48.275Z,0
2017-07-23T00:05:48.262Z,0
2017-07-23T00:06:48.565Z,0
2017-07-23T00:07:48.568Z,0
2017-07-23T00:08:48.862Z,0
2017-07-23T00:09:48.892Z,0
2017-07-23T00:10:48.915Z,0
2017-07-23T00:11:48.861Z,0
2017-07-23T00:12:48.823Z,0
2017-07-23T00:13:48.193Z,0
2017-07-23T00:14:49.116Z,0
2017-07-23T00:15:48.485Z,0
2017-07-23T00:16:48.473Z,0
2017-07-23T00:17:48.467Z,0
2017-07-23T00:18:48.471Z,0
2017-07-23T00:19:48.166Z,0
2017-07-23T00:20:49.082Z,0
2017-07-23T00:21:48.741Z,0
2017-07-23T00:22:48.731Z,0
2017-07-23T00:23:48.094Z,0
2017-07-23T00:24:48.710Z,0
2017-07-23T00:25:48.409Z,0
2017-07-23T00:26:48.704Z,0
2017-07-23T00:27:48.682Z,0
2017-07-23T00:28:48.375Z,0
2017-07-23T00:29:48.049Z,0
2017-07-23T00:30:48.351Z,0
2017-07-23T00:31:48.345Z,0
2017-07-23T00:32:48.643Z,0
2017-07-23T00:33:47.999Z,0
2017-07-23T00:34:48.934Z,0
2017-07-23T00:35:48.614Z,0
2017-07-23T00:36:48.598Z,0
2017-07-23T00:37:48.284Z,0
2017-07-23T00:38:48.587Z,0
2017-07-23T00:39:48.257Z,0
2017-07-23T00:40:48.612Z,0
2017-07-23T00:41:48.551Z,0
2017-07-23T00:42:48.287Z,0
2017-07-23T00:43:48.224Z,0
2017-07-23T00:44:48.220Z,0
2017-07-23T00:45:48.827Z,0
2017-07-23T00:46:48.525Z,0
2017-07-23T00:47:48.500Z,0
2017-07-23T00:48:48.810Z,0
2017-07-23T00:49:48.170Z,0
2017-07-23T00:50:48.483Z,0
2017-07-23T00:51:48.166Z,0
2017-07-23T00:52:47.830Z,0
2017-07-23T00:53:48.762Z,0
2017-07-23T00:54:48.437Z,0
2017-07-23T00:55:48.735Z,0
2017-07-23T00:56:48.735Z,0
2017-07-23T00:57:48.411Z,0
2017-07-23T00:58:47.779Z,0
2017-07-23T00:59:48.074Z,0
2017-07-23T01:00:47.747Z,0
2017-07-23T01:01:48.369Z,0
2017-07-23T01:02:48.044Z,0
2017-07-23T01:03:48.041Z,0
2017-07-23T01:04:48.663Z,0
2017-07-23T01:05:48.333Z,0
2017-07-23T01:06:48.009Z,0
2017-07-23T01:07:47.687Z,0
2017-07-23T01:08:47.576Z,0
2017-07-23T01:09:48.613Z,0
2017-07-23T01:10:47.971Z,0
2017-07-23T01:11:48.591Z,0
2017-07-23T01:12:48.269Z,0
2017-07-23T01:13:47.943Z,0
2017-07-23T01:14:47.937Z,0
2017-07-23T01:15:47.925Z,0
2017-07-23T01:16:48.234Z,0
2017-07-23T01:17:47.908Z,0
2017-07-23T01:18:48.530Z,0
2017-07-23T01:19:48.205Z,0
2017-07-23T01:20:48.187Z,0
2017-07-23T01:21:47.552Z,0
2017-07-23T01:22:47.552Z,0
2017-07-23T01:23:47.846Z,0
2017-07-23T01:24:47.841Z,0
2017-07-23T01:25:47.514Z,0
2017-07-23T01:26:48.143Z,0
2017-07-23T01:27:47.813Z,0
2017-07-23T01:28:47.810Z,0
2017-07-23T01:29:48.002Z,0
2017-07-23T01:30:48.097Z,0
2017-07-23T01:31:48.093Z,0
2017-07-23T01:32:48.392Z,0
2017-07-23T01:33:47.448Z,0
2017-07-23T01:34:48.062Z,0
2017-07-23T01:35:47.419Z,0
2017-07-23T01:36:48.044Z,0
2017-07-23T01:37:47.732Z,0
2017-07-23T01:38:47.707Z,0
2017-07-23T01:39:47.690Z,0
2017-07-23T01:40:47.709Z,0
2017-07-23T01:41:47.674Z,0
2017-07-23T01:42:47.976Z,0
2017-07-23T01:43:47.654Z,0
2017-07-23T01:44:47.648Z,0
2017-07-23T01:45:47.321Z,0
2017-07-23T01:46:47.956Z,0
2017-07-23T01:47:48.254Z,0
2017-07-23T01:48:47.607Z,0
2017-07-23T01:49:46.971Z,0
2017-07-23T01:50:47.594Z,0
2017-07-23T01:51:47.894Z,0
2017-07-23T01:52:47.883Z,0
2017-07-23T01:53:47.872Z,0
2017-07-23T01:54:47.238Z,0
2017-07-23T01:55:47.852Z,0
2017-07-23T01:56:48.159Z,0
2017-07-23T01:57:47.525Z,0
2017-07-23T01:58:47.511Z,0
2017-07-23T01:59:47.907Z,0
2017-07-23T02:00:47.802Z,0
2017-07-23T02:01:47.790Z,0
2017-07-23T02:02:47.172Z,0
2017-07-23T02:03:47.838Z,0
2017-07-23T02:04:47.443Z,0
2017-07-23T02:05:47.745Z,0
2017-07-23T02:06:48.056Z,0
2017-07-23T02:07:47.410Z,0
2017-07-23T02:08:47.737Z,0
2017-07-23T02:09:47.400Z,0
2017-07-23T02:10:47.721Z,0
2017-07-23T02:11:47.381Z,0
2017-07-23T02:12:47.060Z,0
2017-07-23T02:13:47.357Z,0
2017-07-23T02:14:47.347Z,0
2017-07-23T02:15:47.026Z,0
2017-07-23T02:16:47.958Z,0
2017-07-23T02:17:47.322Z,0
2017-07-23T02:18:47.307Z,0
2017-07-23T02:19:47.613Z,0
2017-07-23T02:20:47.285Z,0
2017-07-23T02:21:47.587Z,0
2017-07-23T02:22:47.275Z,0
2017-07-23T02:23:47.886Z,0
2017-07-23T02:24:47.560Z,0
2017-07-23T02:25:47.553Z,0
2017-07-23T02:26:47.879Z,0
2017-07-23T02:27:46.901Z,0
2017-07-23T02:28:47.523Z,0
2017-07-23T02:29:47.202Z,0
2017-07-23T02:30:47.506Z,0
2017-07-23T02:31:47.802Z,0
2017-07-23T02:32:47.487Z,0
2017-07-23T02:33:46.847Z,0
2017-07-23T02:34:46.845Z,0
2017-07-23T02:35:47.453Z,0
2017-07-23T02:36:46.824Z,0
2017-07-23T02:37:47.116Z,0
2017-07-23T02:38:47.743Z,0
2017-07-23T02:39:47.100Z,0
2017-07-23T02:40:47.407Z,0
2017-07-23T02:41:47.392Z,0
2017-07-23T02:42:47.066Z,0
2017-07-23T02:43:47.385Z,0
2017-07-23T02:44:46.738Z,0
2017-07-23T02:45:47.661Z,0
2017-07-23T02:46:47.053Z,0
2017-07-23T02:47:47.019Z,0
2017-07-23T02:48:47.327Z,0
2017-07-23T02:49:47.327Z,0
2017-07-23T02:50:47.619Z,0
2017-07-23T02:51:47.635Z,0
2017-07-23T02:52:46.968Z,0
2017-07-23T02:53:47.278Z,0
2017-07-23T02:54:46.941Z,0
2017-07-23T02:55:47.269Z,0
2017-07-23T02:56:46.924Z,0
2017-07-23T02:57:46.606Z,0
2017-07-23T02:58:46.902Z,0
2017-07-23T02:59:47.207Z,0
2017-07-23T03:00:46.576Z,0
2017-07-23T03:01:46.883Z,0
2017-07-23T03:02:46.870Z,0
2017-07-23T03:03:46.548Z,0
2017-07-23T03:04:46.542Z,0
2017-07-23T03:05:47.457Z,0
2017-07-23T03:06:46.512Z,0
2017-07-23T03:07:46.810Z,0
2017-07-23T03:08:47.006Z,0
2017-07-23T03:09:46.486Z,0
2017-07-23T03:10:47.449Z,0
2017-07-23T03:11:46.774Z,0
2017-07-23T03:12:46.761Z,0
2017-07-23T03:13:47.065Z,0
2017-07-23T03:14:46.738Z,0
2017-07-23T03:15:46.730Z,0
2017-07-23T03:16:46.743Z,0
2017-07-23T03:17:47.023Z,0
2017-07-23T03:18:47.014Z,0
2017-07-23T03:19:47.010Z,0
2017-07-23T03:20:46.689Z,0
2017-07-23T03:21:46.672Z,0
2017-07-23T03:22:46.667Z,0
2017-07-23T03:23:47.272Z,0
2017-07-23T03:24:46.951Z,0
2017-07-23T03:25:47.250Z,0
2017-07-23T03:26:46.308Z,0
2017-07-23T03:27:46.944Z,0
2017-07-23T03:28:46.911Z,0
2017-07-23T03:29:46.588Z,0
2017-07-23T03:30:46.617Z,0
2017-07-23T03:31:46.883Z,0
2017-07-23T03:32:46.562Z,0
2017-07-23T03:33:46.859Z,0
2017-07-23T03:34:46.850Z,0
2017-07-23T03:35:47.174Z,0
2017-07-23T03:36:46.200Z,0
2017-07-23T03:37:46.513Z,0
2017-07-23T03:38:46.179Z,0
2017-07-23T03:39:46.792Z,0
2017-07-23T03:40:46.472Z,0
2017-07-23T03:41:46.151Z,0
2017-07-23T03:42:46.453Z,0
2017-07-23T03:43:46.441Z,0
2017-07-23T03:44:46.116Z,0
2017-07-23T03:45:46.730Z,0
2017-07-23T03:46:46.721Z,0
2017-07-23T03:47:47.035Z,0
2017-07-23T03:48:46.080Z,0
2017-07-23T03:49:46.382Z,0
2017-07-23T03:50:45.747Z,0
2017-07-23T03:51:46.992Z,0
2017-07-23T03:52:46.346Z,0
2017-07-23T03:53:46.023Z,0
2017-07-23T03:54:46.533Z,0
2017-07-23T03:55:46.640Z,0
2017-07-23T03:56:46.634Z,0
2017-07-23T03:57:46.653Z,0
2017-07-23T03:58:46.604Z,0
2017-07-23T03:59:46.277Z,0
2017-07-23T04:00:45.958Z,0
2017-07-23T04:01:46.257Z,0
2017-07-23T04:02:46.248Z,0
2017-07-23T04:03:46.855Z,0
2017-07-23T04:04:46.885Z,0
2017-07-23T04:05:46.285Z,0
2017-07-23T04:06:45.892Z,0
2017-07-23T04:07:46.514Z,0
2017-07-23T04:08:46.193Z,0
2017-07-23T04:09:46.175Z,0
2017-07-23T04:10:46.475Z,0
2017-07-23T04:11:46.490Z,0
2017-07-23T04:12:46.167Z,0
2017-07-23T04:13:46.017Z,0
2017-07-23T04:14:46.745Z,0
2017-07-23T04:15:46.423Z,0
2017-07-23T04:16:46.421Z,0
2017-07-23T04:17:46.085Z,0
2017-07-23T04:18:46.080Z,0
2017-07-23T04:19:46.384Z,0
2017-07-23T04:20:46.681Z,0
2017-07-23T04:21:46.684Z,0
2017-07-23T04:22:46.669Z,0
2017-07-23T04:23:46.340Z,0
2017-07-23T04:24:46.336Z,0
2017-07-23T04:25:46.012Z,0
2017-07-23T04:26:46.621Z,0
2017-07-23T04:27:45.994Z,0
2017-07-23T04:28:45.673Z,0
2017-07-23T04:29:45.966Z,5
2017-07-23T04:30:45.949Z,5
2017-07-23T04:31:46.272Z,5
2017-07-23T04:32:46.242Z,5
2017-07-23T04:33:45.966Z,5
2017-07-23T04:34:46.235Z,5
2017-07-23T04:35:46.234Z,5
2017-07-23T04:36:45.885Z,5
2017-07-23T04:37:46.192Z,5
2017-07-23T04:38:45.863Z,5
2017-07-23T04:39:45.868Z,5
2017-07-23T04:40:45.850Z,10
2017-07-23T04:41:46.161Z,10
2017-07-23T04:42:45.871Z,10
2017-07-23T04:43:45.834Z,15
2017-07-23T04:44:45.493Z,15
2017-07-23T04:45:45.808Z,15
2017-07-23T04:46:46.023Z,15
2017-07-23T04:47:46.086Z,15
2017-07-23T04:48:45.450Z,15
2017-07-23T04:49:45.747Z,15
2017-07-23T04:50:45.180Z,15
2017-07-23T04:51:46.354Z,15
2017-07-23T04:52:46.029Z,15
2017-07-23T04:53:45.718Z,20
2017-07-23T04:54:45.388Z,20
2017-07-23T04:55:46.003Z,25
2017-07-23T04:56:45.872Z,30
2017-07-23T04:57:45.972Z,35
2017-07-23T04:58:45.968Z,30
2017-07-23T04:59:46.275Z,30
2017-07-23T05:00:46.255Z,35
2017-07-23T05:01:45.611Z,40
2017-07-23T05:02:46.246Z,45
2017-07-23T05:03:46.234Z,45
2017-07-23T05:04:45.911Z,45
2017-07-23T05:05:45.579Z,45
2017-07-23T05:06:45.872Z,50
2017-07-23T05:07:45.553Z,50
2017-07-23T05:08:45.752Z,55
2017-07-23T05:09:45.524Z,55
2017-07-23T05:10:45.531Z,55
2017-07-23T05:11:45.828Z,60
2017-07-23T05:12:46.139Z,60
2017-07-23T05:13:45.489Z,65
2017-07-23T05:14:46.113Z,65
2017-07-23T05:15:45.150Z,70
2017-07-23T05:16:45.463Z,70
2017-07-23T05:17:45.766Z,70
2017-07-23T05:18:45.475Z,60
2017-07-23T05:19:45.422Z,45
2017-07-23T05:20:45.732Z,40
2017-07-23T05:21:45.410Z,40
2017-07-23T05:22:45.403Z,45
2017-07-23T05:23:45.384Z,55
2017-07-23T05:24:45.374Z,65
2017-07-23T05:25:45.676Z,75
2017-07-23T05:26:45.670Z,75
2017-07-23T05:27:45.662Z,80
2017-07-23T05:28:45.643Z,85
2017-07-23T05:29:45.629Z,90
2017-07-23T05:30:45.316Z,90
2017-07-23T05:31:45.921Z,90
2017-07-23T05:32:45.905Z,90
2017-07-23T05:33:45.903Z,90
2017-07-23T05:34:45.891Z,95
2017-07-23T05:35:45.265Z,90
2017-07-23T05:36:44.606Z,85
2017-07-23T05:37:45.546Z,80
2017-07-23T05:38:45.540Z,75
2017-07-23T05:39:45.206Z,75
2017-07-23T05:40:45.510Z,75
2017-07-23T05:41:45.184Z,75
2017-07-23T05:42:45.176Z,80
2017-07-23T05:43:45.173Z,85
2017-07-23T05:44:44.550Z,90
2017-07-23T05:45:45.464Z,95
2017-07-23T05:46:45.780Z,105
2017-07-23T05:47:45.135Z,105
2017-07-23T05:48:45.438Z,110
2017-07-23T05:49:45.123Z,105
2017-07-23T05:50:44.798Z,100
2017-07-23T05:51:45.417Z,95
2017-07-23T05:52:45.399Z,90
2017-07-23T05:53:44.752Z,80
2017-07-23T05:54:45.053Z,75
2017-07-23T05:55:45.044Z,70
2017-07-23T05:56:45.037Z,75
2017-07-23T05:57:44.705Z,70
2017-07-23T05:58:45.008Z,60
2017-07-23T05:59:44.687Z,55
2017-07-23T06:00:45.303Z,60
2017-07-23T06:01:44.979Z,60
2017-07-23T06:02:45.595Z,60
2017-07-23T06:03:44.643Z,60
2017-07-23T06:04:45.261Z,65
2017-07-23T06:05:44.620Z,65
2017-07-23T06:06:45.252Z,65
2017-07-23T06:07:45.238Z,65
2017-07-23T06:08:45.212Z,70
2017-07-23T06:09:44.585Z,70
2017-07-23T06:10:45.227Z,75
2017-07-23T06:11:45.194Z,80
2017-07-23T06:12:44.860Z,90
2017-07-23T06:13:45.169Z,105
2017-07-23T06:14:44.852Z,100
2017-07-23T06:15:45.158Z,100
2017-07-23T06:16:44.517Z,105
2017-07-23T06:17:44.805Z,100
2017-07-23T06:18:44.798Z,95
2017-07-23T06:19:45.102Z,85
2017-07-23T06:20:44.782Z,90
2017-07-23T06:21:45.095Z,80
2017-07-23T06:22:45.102Z,80
2017-07-23T06:23:44.746Z,80
2017-07-23T06:24:45.066Z,75
2017-07-23T06:25:45.369Z,75
2017-07-23T06:26:45.350Z,70
2017-07-23T06:27:44.695Z,70
2017-07-23T06:28:44.999Z,70
2017-07-23T06:29:45.007Z,70
2017-07-23T06:30:44.981Z,70
2017-07-23T06:31:44.973Z,70
2017-07-23T06:32:44.957Z,70
2017-07-23T06:33:44.325Z,70
2017-07-23T06:34:44.619Z,70
2017-07-23T06:35:44.606Z,70
2017-07-23T06:36:45.227Z,75
2017-07-23T06:37:44.619Z,75
2017-07-23T06:38:44.896Z,85
2017-07-23T06:39:44.620Z,75
2017-07-23T06:40:44.869Z,85
2017-07-23T06:41:45.180Z,90
2017-07-23T06:42:44.563Z,90
2017-07-23T06:43:44.850Z,100
2017-07-23T06:44:44.879Z,85
2017-07-23T06:45:44.505Z,95
2017-07-23T06:46:44.802Z,95
2017-07-23T06:47:44.179Z,100
2017-07-23T06:48:44.779Z,120
2017-07-23T06:49:44.765Z,95
2017-07-23T06:50:44.777Z,115
2017-07-23T06:51:44.747Z,120
2017-07-23T06:52:45.048Z,125
2017-07-23T06:53:45.036Z,135
2017-07-23T06:54:44.086Z,115
2017-07-23T06:55:44.727Z,125
2017-07-23T06:56:44.393Z,120
2017-07-23T06:57:44.694Z,100
2017-07-23T06:58:44.666Z,100
2017-07-23T06:59:44.355Z,100
2017-07-23T07:00:44.030Z,100
2017-07-23T07:01:43.729Z,105
2017-07-23T07:02:44.374Z,110
2017-07-23T07:03:44.306Z,115
2017-07-23T07:04:45.045Z,115
2017-07-23T07:05:44.290Z,120
2017-07-23T07:06:43.977Z,150
2017-07-23T07:07:44.272Z,135
2017-07-23T07:08:44.759Z,135
2017-07-23T07:09:43.655Z,150
2017-07-23T07:10:44.546Z,160
2017-07-23T07:11:44.213Z,170
2017-07-23T07:12:44.529Z,165
2017-07-23T07:13:44.517Z,170
2017-07-23T07:14:44.810Z,185
2017-07-23T07:15:44.494Z,210
2017-07-23T07:16:44.477Z,210
2017-07-23T07:17:44.160Z,220
2017-07-23T07:18:44.463Z,230
2017-07-23T07:19:43.829Z,230
2017-07-23T07:20:44.130Z,195
2017-07-23T07:21:44.426Z,250
2017-07-23T07:22:44.414Z,245
2017-07-23T07:23:44.723Z,260
2017-07-23T07:24:44.088Z,255
2017-07-23T07:25:44.389Z,250
2017-07-23T07:26:44.066Z,255
2017-07-23T07:27:44.111Z,220
2017-07-23T07:28:44.048Z,240
2017-07-23T07:29:43.739Z,265
2017-07-23T07:30:44.032Z,275
2017-07-23T07:31:44.326Z,280
2017-07-23T07:32:44.319Z,270
2017-07-23T07:33:44.324Z,290
2017-07-23T07:34:44.046Z,410
2017-07-23T07:35:43.985Z,960
2017-07-23T07:36:43.982Z,1380
2017-07-23T07:37:43.958Z,1405
2017-07-23T07:38:43.957Z,1450
2017-07-23T07:39:43.642Z,1450
2017-07-23T07:40:43.318Z,1425
2017-07-23T07:41:44.249Z,550
2017-07-23T07:42:43.626Z,310
2017-07-23T07:43:44.237Z,640
2017-07-23T07:44:44.224Z,1445
2017-07-23T07:45:44.225Z,695
2017-07-23T07:46:44.525Z,1195
2017-07-23T07:47:44.212Z,900
2017-07-23T07:48:43.577Z,1030
2017-07-23T07:49:43.573Z,1125
2017-07-23T07:50:43.569Z,920
2017-07-23T07:51:43.872Z,1015
2017-07-23T07:52:43.877Z,255
2017-07-23T07:53:44.505Z,800
2017-07-23T07:54:43.856Z,370
2017-07-23T07:55:43.853Z,330
2017-07-23T07:56:43.221Z,170
2017-07-23T07:57:44.158Z,160
2017-07-23T07:58:44.167Z,155
2017-07-23T07:59:44.465Z,180
2017-07-23T08:00:44.462Z,350
2017-07-23T08:01:44.458Z,255
2017-07-23T08:02:44.137Z,275
2017-07-23T08:03:44.130Z,480
2017-07-23T08:04:43.801Z,350
2017-07-23T08:05:43.800Z,845
2017-07-23T08:06:44.111Z,485
2017-07-23T08:07:44.097Z,1165
2017-07-23T08:08:43.774Z,775
2017-07-23T08:09:44.095Z,535
2017-07-23T08:10:43.451Z,200
2017-07-23T08:11:43.446Z,200
2017-07-23T08:12:43.761Z,1285
2017-07-23T08:13:44.378Z,375
2017-07-23T08:14:44.050Z,985
2017-07-23T08:15:44.075Z,1015
2017-07-23T08:16:43.736Z,190
2017-07-23T08:17:44.036Z,1530
2017-07-23T08:18:44.341Z,670
2017-07-23T08:19:43.721Z,150
2017-07-23T08:20:44.337Z,215
2017-07-23T08:21:44.009Z,240
2017-07-23T08:22:44.337Z,1230
2017-07-23T08:23:44.001Z,165
2017-07-23T08:24:43.705Z,150
2017-07-23T08:25:43.365Z,150
2017-07-23T08:26:43.982Z,1260
2017-07-23T08:27:43.350Z,150
2017-07-23T08:28:44.287Z,1235
2017-07-23T08:29:43.969Z,765
2017-07-23T08:30:43.659Z,270
2017-07-23T08:31:43.655Z,165
2017-07-23T08:32:43.636Z,395
2017-07-23T08:33:43.933Z,265
2017-07-23T08:34:44.244Z,175
2017-07-23T08:35:43.933Z,1250
2017-07-23T08:36:43.609Z,165
2017-07-23T08:37:43.611Z,240
2017-07-23T08:38:43.608Z,115
2017-07-23T08:39:44.206Z,125
2017-07-23T08:40:43.897Z,1435
2017-07-23T08:41:44.208Z,1845
2017-07-23T08:42:43.886Z,1865
2017-07-23T08:43:43.553Z,1855
2017-07-23T08:44:43.876Z,1720
2017-07-23T08:45:44.176Z,1735
2017-07-23T08:46:43.540Z,1740
2017-07-23T08:47:44.164Z,1640
2017-07-23T08:48:43.849Z,1260
2017-07-23T08:49:43.853Z,955
2017-07-23T08:50:44.144Z,1155
2017-07-23T08:51:43.516Z,550
2017-07-23T08:52:44.137Z,760
2017-07-23T08:53:43.516Z,845
2017-07-23T08:54:44.138Z,1155
2017-07-23T08:55:44.130Z,1015
2017-07-23T08:56:43.815Z,725
2017-07-23T08:57:43.807Z,675
2017-07-23T08:58:43.495Z,690
2017-07-23T08:59:43.541Z,935
2017-07-23T09:00:43.486Z,320
2017-07-23T09:01:43.789Z,615
2017-07-23T09:02:43.473Z,210
2017-07-23T09:03:44.102Z,295
2017-07-23T09:04:44.082Z,305
2017-07-23T09:05:43.460Z,285
2017-07-23T09:06:43.475Z,295
2017-07-23T09:07:44.078Z,315
2017-07-23T09:08:44.262Z,440
2017-07-23T09:09:43.793Z,320
2017-07-23T09:10:43.116Z,280
2017-07-23T09:11:43.455Z,240
2017-07-23T09:12:43.413Z,275
2017-07-23T09:13:43.091Z,285
2017-07-23T09:14:44.037Z,285
2017-07-23T09:15:43.712Z,225
2017-07-23T09:16:43.388Z,305
2017-07-23T09:17:44.046Z,220
2017-07-23T09:18:43.064Z,375
2017-07-23T09:19:42.753Z,390
2017-07-23T09:20:43.055Z,300
2017-07-23T09:21:43.355Z,170
2017-07-23T09:22:43.991Z,180
2017-07-23T09:23:43.364Z,170
2017-07-23T09:24:43.655Z,190
2017-07-23T09:25:43.335Z,235
2017-07-23T09:26:43.319Z,335
2017-07-23T09:27:43.639Z,355
2017-07-23T09:28:43.004Z,400
2017-07-23T09:29:43.922Z,310
2017-07-23T09:30:43.607Z,395
2017-07-23T09:31:43.291Z,375
2017-07-23T09:32:43.605Z,370
2017-07-23T09:33:43.595Z,330
2017-07-23T09:34:43.593Z,215
2017-07-23T09:35:43.582Z,200
2017-07-23T09:36:43.253Z,195
2017-07-23T09:37:42.940Z,190
2017-07-23T09:38:43.879Z,165
2017-07-23T09:39:43.260Z,120
2017-07-23T09:40:43.548Z,90
2017-07-23T09:41:42.922Z,90
2017-07-23T09:42:43.217Z,95
2017-07-23T09:43:42.894Z,95
2017-07-23T09:44:43.201Z,105
2017-07-23T09:45:43.196Z,125
2017-07-23T09:46:42.571Z,155
2017-07-23T09:47:43.510Z,260
2017-07-23T09:48:43.384Z,215
2017-07-23T09:49:43.179Z,235
2017-07-23T09:50:43.472Z,245
2017-07-23T09:51:43.466Z,275
2017-07-23T09:52:42.845Z,280
2017-07-23T09:53:43.449Z,325
2017-07-23T09:54:43.127Z,395
2017-07-23T09:55:42.504Z,510
2017-07-23T09:56:42.800Z,440
2017-07-23T09:57:42.788Z,415
2017-07-23T09:58:43.726Z,395
2017-07-23T09:59:43.120Z,530
2017-07-23T10:00:43.582Z,460
2017-07-23T10:01:42.839Z,410
2017-07-23T10:02:42.902Z,300
2017-07-23T10:03:43.375Z,250
2017-07-23T10:04:43.358Z,270
2017-07-23T10:05:43.047Z,320
2017-07-23T10:06:43.414Z,430
2017-07-23T10:07:42.723Z,550
2017-07-23T10:08:43.428Z,550
2017-07-23T10:09:42.722Z,465
2017-07-23T10:10:43.422Z,455
2017-07-23T10:11:43.349Z,355
2017-07-23T10:12:43.017Z,290
2017-07-23T10:13:43.305Z,530
2017-07-23T10:14:43.016Z,370
2017-07-23T10:15:43.074Z,315
2017-07-23T10:16:42.652Z,300
2017-07-23T10:17:43.274Z,730
2017-07-23T10:18:43.634Z,1615
2017-07-23T10:19:43.263Z,1100
2017-07-23T10:20:43.047Z,570
2017-07-23T10:21:42.938Z,385
2017-07-23T10:22:43.255Z,345
2017-07-23T10:23:43.243Z,575
2017-07-23T10:24:43.550Z,455
2017-07-23T10:25:42.912Z,1405
2017-07-23T10:26:42.917Z,1775
2017-07-23T10:27:43.525Z,1370
2017-07-23T10:28:43.213Z,2075
2017-07-23T10:29:43.200Z,2165
2017-07-23T10:30:42.894Z,2150
2017-07-23T10:31:42.580Z,2210
2017-07-23T10:32:43.196Z,2330
2017-07-23T10:33:43.195Z,750
2017-07-23T10:34:42.594Z,615
2017-07-23T10:35:42.882Z,1830
2017-07-23T10:36:42.573Z,2385
2017-07-23T10:37:42.558Z,750
2017-07-23T10:38:43.196Z,2435
2017-07-23T10:39:42.551Z,2200
2017-07-23T10:40:43.175Z,2295
2017-07-23T10:41:43.175Z,680
2017-07-23T10:42:42.872Z,1525
2017-07-23T10:43:43.487Z,2240
2017-07-23T10:44:42.863Z,395
2017-07-23T10:45:42.864Z,370
2017-07-23T10:46:42.858Z,505
2017-07-23T10:47:43.177Z,815
2017-07-23T10:48:42.857Z,785
2017-07-23T10:49:42.857Z,905
2017-07-23T10:50:43.174Z,2465
2017-07-23T10:51:43.169Z,955
2017-07-23T10:52:43.482Z,970
2017-07-23T10:53:43.170Z,1420
2017-07-23T10:54:42.856Z,1345
2017-07-23T10:55:42.855Z,710
2017-07-23T10:56:43.476Z,870
2017-07-23T10:57:43.532Z,1595
2017-07-23T10:58:43.157Z,2405
2017-07-23T10:59:43.156Z,2540
2017-07-23T11:00:43.171Z,1245
2017-07-23T11:01:43.162Z,985
2017-07-23T11:02:42.849Z,995
2017-07-23T11:03:43.160Z,400
2017-07-23T11:04:43.523Z,765
2017-07-23T11:05:42.852Z,465
2017-07-23T11:06:43.595Z,380
2017-07-23T11:07:43.163Z,300
2017-07-23T11:08:43.561Z,290
2017-07-23T11:09:43.462Z,275
2017-07-23T11:10:42.859Z,260
2017-07-23T11:11:42.216Z,235
2017-07-23T11:12:43.141Z,210
2017-07-23T11:13:42.833Z,190
2017-07-23T11:14:42.825Z,180
2017-07-23T11:15:42.828Z,170
2017-07-23T11:16:42.822Z,165
2017-07-23T11:17:43.445Z,175
2017-07-23T11:18:42.806Z,190
2017-07-23T11:19:43.437Z,215
2017-07-23T11:20:43.440Z,235
2017-07-23T11:21:42.526Z,260
2017-07-23T11:22:43.125Z,285
2017-07-23T11:23:42.475Z,300
2017-07-23T11:24:42.523Z,280
2017-07-23T11:25:42.490Z,245
2017-07-23T11:26:42.770Z,210
2017-07-23T11:27:42.763Z,200
2017-07-23T11:28:42.771Z,190
2017-07-23T11:29:42.759Z,190
2017-07-23T11:30:42.751Z,205
2017-07-23T11:31:43.053Z,220
2017-07-23T11:32:43.050Z,240
2017-07-23T11:33:42.420Z,255
2017-07-23T11:34:43.066Z,270
2017-07-23T11:35:42.409Z,285
2017-07-23T11:36:43.023Z,295
2017-07-23T11:37:42.709Z,295
2017-07-23T11:38:42.693Z,300
2017-07-23T11:39:42.385Z,315
2017-07-23T11:40:42.681Z,345
2017-07-23T11:41:42.992Z,360
2017-07-23T11:42:43.323Z,365
2017-07-23T11:43:42.667Z,390
2017-07-23T11:44:42.346Z,455
2017-07-23T11:45:43.278Z,535
2017-07-23T11:46:42.702Z,490
2017-07-23T11:47:42.633Z,500
2017-07-23T11:48:42.955Z,485
2017-07-23T11:49:42.623Z,505
2017-07-23T11:50:42.632Z,535
2017-07-23T11:51:43.256Z,480
2017-07-23T11:52:42.622Z,485
2017-07-23T11:53:42.597Z,485
2017-07-23T11:54:42.908Z,500
2017-07-23T11:55:42.926Z,550
2017-07-23T11:56:42.930Z,565
2017-07-23T11:57:42.906Z,560
2017-07-23T11:58:42.894Z,620
2017-07-23T11:59:42.570Z,625
2017-07-23T12:00:41.941Z,620
2017-07-23T12:01:43.184Z,670
2017-07-23T12:02:42.910Z,745
2017-07-23T12:03:42.909Z,805
2017-07-23T12:04:42.536Z,735
2017-07-23T12:05:42.532Z,750
2017-07-23T12:06:42.517Z,675
2017-07-23T12:07:42.518Z,895
2017-07-23T12:08:41.896Z,840
2017-07-23T12:09:42.192Z,800
2017-07-23T12:10:42.498Z,805
2017-07-23T12:11:42.809Z,690
2017-07-23T12:12:42.492Z,715
2017-07-23T12:13:42.172Z,755
2017-07-23T12:14:42.501Z,890
2017-07-23T12:15:42.485Z,1030
2017-07-23T12:16:42.800Z,850
2017-07-23T12:17:42.157Z,1180
2017-07-23T12:18:42.153Z,1405
2017-07-23T12:19:42.146Z,2620
2017-07-23T12:20:42.473Z,1445
2017-07-23T12:21:42.442Z,2110
2017-07-23T12:22:42.755Z,2655
2017-07-23T12:23:42.444Z,1190
2017-07-23T12:24:42.441Z,2720
2017-07-23T12:25:42.435Z,2450
2017-07-23T12:26:42.745Z,1695
2017-07-23T12:27:42.434Z,2005
2017-07-23T12:28:43.073Z,2235
2017-07-23T12:29:42.422Z,2265
2017-07-23T12:30:42.420Z,2160
2017-07-23T12:31:42.431Z,2095
2017-07-23T12:32:42.426Z,1875
2017-07-23T12:33:42.424Z,1475
2017-07-23T12:34:42.417Z,1115
2017-07-23T12:35:42.417Z,1405
2017-07-23T12:36:42.819Z,890
2017-07-23T12:37:42.407Z,845
2017-07-23T12:38:42.421Z,945
2017-07-23T12:39:43.052Z,975
2017-07-23T12:40:42.741Z,1150
2017-07-23T12:41:42.733Z,2210
2017-07-23T12:42:42.105Z,2050
2017-07-23T12:43:43.046Z,1670
2017-07-23T12:44:42.855Z,2285
2017-07-23T12:45:42.734Z,2400
2017-07-23T12:46:43.046Z,2490
2017-07-23T12:47:42.732Z,2135
2017-07-23T12:48:43.048Z,540
2017-07-23T12:49:42.438Z,450
2017-07-23T12:50:42.730Z,400
2017-07-23T12:51:42.733Z,345
2017-07-23T12:52:42.436Z,270
2017-07-23T12:53:42.726Z,235
2017-07-23T12:54:42.117Z,225
2017-07-23T12:55:42.427Z,235
2017-07-23T12:56:42.737Z,245
2017-07-23T12:57:42.922Z,260
2017-07-23T12:58:41.807Z,335
2017-07-23T12:59:42.735Z,385
2017-07-23T13:00:42.723Z,230
2017-07-23T13:01:42.398Z,175
2017-07-23T13:02:42.242Z,145
2017-07-23T13:03:43.017Z,120
2017-07-23T13:04:42.078Z,115
2017-07-23T13:05:42.699Z,130
2017-07-23T13:06:42.759Z,140
2017-07-23T13:07:43.058Z,140
2017-07-23T13:08:42.775Z,140
2017-07-23T13:09:42.673Z,140
2017-07-23T13:10:41.750Z,150
2017-07-23T13:11:42.411Z,165
2017-07-23T13:12:42.665Z,170
2017-07-23T13:13:42.686Z,180
2017-07-23T13:14:42.035Z,185
2017-07-23T13:15:42.030Z,185
2017-07-23T13:16:42.957Z,190
2017-07-23T13:17:42.115Z,195
2017-07-23T13:18:42.318Z,210
2017-07-23T13:19:42.622Z,220
2017-07-23T13:20:42.311Z,235
2017-07-23T13:21:42.610Z,265
2017-07-23T13:22:41.988Z,295
2017-07-23T13:23:42.598Z,340
2017-07-23T13:24:41.966Z,390
2017-07-23T13:25:42.279Z,495
2017-07-23T13:26:42.577Z,435
2017-07-23T13:27:41.943Z,505
2017-07-23T13:28:42.259Z,2170
2017-07-23T13:29:41.608Z,2030
2017-07-23T13:30:42.575Z,595
2017-07-23T13:31:42.890Z,530
2017-07-23T13:32:42.894Z,540
2017-07-23T13:33:42.526Z,590
2017-07-23T13:34:42.827Z,665
2017-07-23T13:35:41.892Z,585
2017-07-23T13:36:42.560Z,760
2017-07-23T13:37:42.187Z,815
2017-07-23T13:38:42.536Z,650
2017-07-23T13:39:42.497Z,795
2017-07-23T13:40:41.874Z,730
2017-07-23T13:41:42.175Z,675
2017-07-23T13:42:42.227Z,745
2017-07-23T13:43:42.043Z,595
2017-07-23T13:44:41.533Z,2050
2017-07-23T13:45:42.213Z,2010
2017-07-23T13:46:42.149Z,420
2017-07-23T13:47:42.795Z,520
2017-07-23T13:48:41.525Z,1880
2017-07-23T13:49:42.126Z,320
2017-07-23T13:50:42.444Z,330
2017-07-23T13:51:41.820Z,455
2017-07-23T13:52:42.475Z,725
2017-07-23T13:53:42.142Z,520
2017-07-23T13:54:42.482Z,1105
2017-07-23T13:55:42.753Z,2015
2017-07-23T13:56:42.114Z,500
2017-07-23T13:57:42.122Z,330
2017-07-23T13:58:41.485Z,515
2017-07-23T13:59:42.485Z,425
2017-07-23T14:00:41.786Z,475
2017-07-23T14:01:42.411Z,335
2017-07-23T14:02:42.403Z,805
2017-07-23T14:03:42.411Z,310
2017-07-23T14:04:42.397Z,215
2017-07-23T14:05:42.407Z,185
2017-07-23T14:06:42.092Z,205